Time;durP1;ratioP1;P1;durP2;ratioP2;P2;SDS_P1;SDS_P2;PMS_P1;PMS_P2;Temp;Humidity;BMP_temperature;BMP_pressure;BME280_temperature;BME280_humidity;BME280_pressure;Samples;Min_cycle;Max_cycle;Signal;HPM_P1;HPM_P2
2022/02/02 00:00:14;;;;;;;29.03;12.83;;;;;;;-8.47;78.46;94784.39;1825282;78;21037;-76
2022/02/02 00:02:47;;;;;;;37.23;16.37;;;;;;;-8.52;78.48;94788.06;1825216;78;21010;-76
2022/02/02 00:05:22;;;;;;;34.17;14.77;;;;;;;-8.47;79.13;94785.67;1824447;78;20987;-76
2022/02/02 00:08:00;;;;;;;26.73;11.20;;;;;;;-8.47;78.85;94782.24;1824336;78;20983;-76
2022/02/02 00:13:07;;;;;;;19.05;9.15;;;;;;;-8.43;79.38;94786.27;1825898;78;21015;-76
2022/02/02 00:15:43;;;;;;;33.80;11.65;;;;;;;-8.36;79.18;94781.83;1824586;78;20967;-76
2022/02/02 00:20:55;;;;;;;21.80;8.37;;;;;;;-8.29;78.35;94783.83;1826009;78;21010;-76
2022/02/02 00:23:21;;;;;;;20.73;9.67;;;;;;;-8.30;78.76;94776.08;1825890;78;21002;-76
2022/02/02 00:25:55;;;;;;;23.47;8.60;;;;;;;-8.50;78.40;94778.74;1825725;79;21061;-76
2022/02/02 00:28:21;;;;;;;15.10;7.50;;;;;;;-8.58;78.53;94780.54;1825977;78;21574;-76
2022/02/02 00:30:45;;;;;;;11.37;5.00;;;;;;;-8.62;78.45;94784.64;1826057;78;21006;-76
2022/02/02 00:33:20;;;;;;;18.93;9.77;;;;;;;-8.55;78.90;94772.57;1825992;78;21002;-76
2022/02/02 00:35:44;;;;;;;13.10;6.90;;;;;;;-8.58;78.97;94777.57;1786578;80;20999;-76
2022/02/02 00:38:08;;;;;;;18.53;7.30;;;;;;;-8.59;78.43;94782.61;1825744;78;21066;-76
2022/02/02 00:40:35;;;;;;;15.70;7.83;;;;;;;-8.61;78.24;94785.13;1826223;78;21496;-76
2022/02/02 00:43:01;;;;;;;16.90;8.27;;;;;;;-8.64;78.07;94783.73;1826322;78;21029;-76
2022/02/02 00:45:33;;;;;;;13.63;6.23;;;;;;;-8.62;78.63;94774.41;1826219;78;21086;-76
2022/02/02 00:48:01;;;;;;;19.93;6.77;;;;;;;-8.63;78.02;94772.67;1826107;78;21070;-76
2022/02/02 00:50:28;;;;;;;14.80;6.40;;;;;;;-8.74;78.14;94764.99;1826334;78;21038;-76
2022/02/02 00:52:55;;;;;;;14.63;6.17;;;;;;;-8.67;78.51;94766.95;1826190;78;20998;-76
2022/02/02 00:55:22;;;;;;;17.30;6.20;;;;;;;-8.61;78.62;94753.57;1826049;78;20986;-76
2022/02/02 00:57:48;;;;;;;13.57;6.20;;;;;;;-8.61;78.46;94748.45;1829071;78;21049;-76
2022/02/02 01:00:16;;;;;;;13.90;6.73;;;;;;;-8.64;78.63;94753.05;1832086;78;21579;-76
2022/02/02 01:02:43;;;;;;;15.07;7.00;;;;;;;-8.58;78.58;94748.16;1831928;78;21006;-76
2022/02/02 01:05:09;;;;;;;17.57;6.03;;;;;;;-8.52;78.93;94747.52;1831959;78;21503;-76
2022/02/02 01:10:26;;;;;;;16.80;7.20;;;;;;;-8.34;78.77;94739.28;1831879;78;21021;-76
2022/02/02 01:13:04;;;;;;;17.93;8.43;;;;;;;-8.36;77.94;94740.90;1830230;78;21113;-76
2022/02/02 01:15:41;;;;;;;23.93;11.00;;;;;;;-8.44;77.47;94741.05;1831369;78;21085;-76
2022/02/02 01:18:13;;;;;;;13.80;6.33;;;;;;;-8.44;78.44;94736.31;1827170;78;20990;-76
2022/02/02 01:28:28;;;;;;;27.13;11.53;;;;;;;-8.23;77.82;94728.17;1832089;78;21496;-76
2022/02/02 01:30:55;;;;;;;21.43;10.03;;;;;;;-8.26;77.57;94725.50;1831622;78;21031;-76
2022/02/02 01:33:22;;;;;;;16.50;7.53;;;;;;;-8.25;77.41;94728.52;1832100;78;21511;-76
2022/02/02 01:35:50;;;;;;;6.33;3.90;;;;;;;-8.17;78.10;94730.95;1832047;78;20990;-76
2022/02/02 01:38:17;;;;;;;8.57;4.20;;;;;;;-8.09;78.18;94732.52;1832030;78;20951;-76
2022/02/02 01:40:49;;;;;;;12.23;4.33;;;;;;;-8.10;77.92;94731.65;1831692;78;21440;-76
2022/02/02 01:43:18;;;;;;;9.13;4.67;;;;;;;-8.11;77.70;94727.77;1831169;78;20974;-76
2022/02/02 01:45:55;;;;;;;20.93;10.03;;;;;;;-8.20;77.93;94730.84;1831641;78;21014;-76
2022/02/02 01:48:38;;;;;;;28.67;13.60;;;;;;;-8.36;76.68;94720.43;1829992;78;21006;-76
2022/02/02 01:56:08;;;;;;;13.43;4.70;;;;;;;-8.72;77.78;94712.20;1831812;78;21057;-76
2022/02/02 01:59:00;;;;;;;13.53;4.47;;;;;;;-8.60;78.63;94714.39;1827813;78;20990;-76
2022/02/02 02:01:08;;;;;;;11.93;5.20;;;;;;;-8.52;78.48;94694.70;1825440;78;21022;-76
2022/02/02 02:03:37;;;;;;;16.70;6.13;;;;;;;-8.42;78.92;94701.02;1826201;78;20986;-76
2022/02/02 02:06:05;;;;;;;12.07;5.57;;;;;;;-8.35;79.20;94686.34;1825981;78;20962;-76
2022/02/02 02:08:34;;;;;;;38.73;15.20;;;;;;;-8.30;78.99;94682.69;1826329;78;21029;-76
2022/02/02 02:11:02;;;;;;;17.00;8.13;;;;;;;-8.42;77.20;94673.30;1825981;78;21511;-76
2022/02/02 02:16:15;;;;;;;30.03;13.87;;;;;;;-8.47;77.93;94669.69;1826266;78;21097;-75
2022/02/02 02:18:42;;;;;;;7.90;4.27;;;;;;;-8.41;78.63;94669.95;1825896;78;21006;-76
2022/02/02 02:21:12;;;;;;;11.77;4.80;;;;;;;-8.36;78.60;94673.10;1826213;78;21054;-76
2022/02/02 02:23:38;;;;;;;13.23;5.80;;;;;;;-8.24;78.99;94660.29;1826454;78;21014;-76
2022/02/02 02:26:06;;;;;;;8.83;4.50;;;;;;;-8.22;79.13;94651.85;1826002;78;21002;-76
2022/02/02 02:31:22;;;;;;;32.30;13.00;;;;;;;-8.07;78.21;94652.41;1826112;78;21402;-76
2022/02/02 03:00:57;;;;;;;25.15;9.30;;;;;;;-7.33;77.23;94647.71;1826319;78;21112;-76
2022/02/02 03:50:11;;;;;;;18.37;8.80;;;;;;;-5.97;77.62;94599.34;1826170;78;21053;-76
2022/02/02 03:55:22;;;;;;;16.70;8.10;;;;;;;-6.07;77.33;94590.92;1826074;78;21504;-76
2022/02/02 04:03:05;;;;;;;24.12;8.83;;;;;;;-5.85;77.77;94595.33;1768496;81;21014;-76
2022/02/02 04:08:24;;;;;;;26.83;12.97;;;;;;;-5.78;77.60;94585.25;1693462;81;21015;-75
2022/02/02 04:10:43;;;;;;;19.73;10.17;;;;;;;-5.73;77.82;94583.67;1766642;81;21456;-77
2022/02/02 04:37:39;;;;;;;57.17;27.33;;;;;;;-5.38;78.52;94567.02;1740978;81;21038;-77
2022/02/02 05:06:54;;;;;;;6.53;2.33;;;;;;;-3.44;78.77;94538.98;1756411;82;21070;-76
2022/02/02 05:15:38;;;;;;;43.80;17.63;;;;;;;-2.97;77.47;94539.77;1756508;82;20986;-77
2022/02/02 05:51:36;;;;;;;81.03;32.70;;;;;;;-3.56;74.71;94501.80;1756470;82;21011;-76
2022/02/02 05:53:53;;;;;;;253.07;118.95;;;;;;;-3.64;74.64;94512.84;1754816;82;20992;-76
2022/02/02 05:56:19;;;;;;;140.20;52.83;;;;;;;-3.87;75.29;94508.13;1756195;82;21046;-76
2022/02/02 05:58:48;;;;;;;127.40;48.33;;;;;;;-3.87;75.42;94499.53;1758030;81;21065;-76
2022/02/02 06:01:16;;;;;;;118.77;46.33;;;;;;;-3.85;75.78;94505.16;1768469;81;20990;-76
2022/02/02 06:03:53;;;;;;;161.30;64.63;;;;;;;-3.84;75.58;94505.59;1768524;81;21003;-78
2022/02/02 06:06:25;;;;;;;144.37;62.07;;;;;;;-3.78;75.97;94509.99;1768635;81;21053;-78
2022/02/02 06:08:54;;;;;;;69.33;30.53;;;;;;;-3.75;76.18;94510.94;1767191;81;21014;-76
2022/02/02 06:11:23;;;;;;;87.47;38.83;;;;;;;-3.80;76.09;94522.01;1767162;81;21561;-77
2022/02/02 06:13:55;;;;;;;65.00;30.77;;;;;;;-3.72;76.47;94521.30;1767844;81;21065;-75
2022/02/02 06:16:24;;;;;;;97.37;40.70;;;;;;;-3.63;76.61;94515.42;1767530;81;21022;-77
2022/02/02 06:19:00;;;;;;;202.60;73.07;;;;;;;-3.65;75.96;94524.86;1768049;81;21058;-76
2022/02/02 06:21:33;;;;;;;117.67;48.57;;;;;;;-3.62;76.14;94523.63;1768041;81;21061;-77
2022/02/02 06:24:10;;;;;;;162.80;61.83;;;;;;;-3.59;75.92;94521.09;1767997;81;20986;-73
2022/02/02 06:26:40;;;;;;;109.87;44.87;;;;;;;-3.61;75.90;94526.64;1768283;81;20990;-74
2022/02/02 06:29:10;;;;;;;63.33;27.83;;;;;;;-3.55;76.59;94525.91;1768066;81;20995;-75
2022/02/02 06:31:39;;;;;;;88.57;40.70;;;;;;;-3.39;76.58;94521.87;1765880;81;21480;-71
2022/02/02 06:34:10;;;;;;;62.17;29.70;;;;;;;-3.26;76.55;94518.64;1767473;81;21558;-73
2022/02/02 06:36:39;;;;;;;51.73;26.03;;;;;;;-3.17;75.82;94517.95;1767145;81;21124;-75
2022/02/02 06:39:08;;;;;;;79.03;40.03;;;;;;;-3.08;75.91;94525.81;1767036;81;21088;-77
2022/02/02 06:41:36;;;;;;;53.67;26.73;;;;;;;-2.98;75.88;94519.95;1767846;81;21492;-74
2022/02/02 06:44:05;;;;;;;48.63;25.20;;;;;;;-2.95;75.41;94526.48;1759422;80;21037;-76
2022/02/02 06:46:34;;;;;;;47.57;25.43;;;;;;;-2.85;75.25;94523.59;1768452;81;21501;-73
2022/02/02 06:49:02;;;;;;;56.30;27.83;;;;;;;-2.78;74.96;94518.97;1767201;81;21064;-72
2022/02/02 06:54:09;;;;;;;101.27;43.20;;;;;;;-2.68;74.60;94521.27;1767617;81;21017;-76
2022/02/02 06:56:50;;;;;;;66.83;31.10;;;;;;;-2.53;74.75;94516.74;1780803;80;21082;-76
2022/02/02 06:59:40;;;;;;;28.87;13.50;;;;;;;-2.36;74.92;94510.09;1748755;82;21101;-76
2022/02/02 07:02:18;;;;;;;38.87;19.97;;;;;;;-2.27;73.60;94500.28;1770032;81;21018;-75
2022/02/02 07:11:08;;;;;;;34.57;16.27;;;;;;;-1.71;73.69;94497.91;1767188;81;21057;-72
2022/02/02 07:13:42;;;;;;;37.10;16.60;;;;;;;-1.58;73.15;94505.83;1781192;80;21454;-73
2022/02/02 07:19:08;;;;;;;30.83;13.60;;;;;;;-1.34;72.38;94490.09;1768367;81;21081;-72
2022/02/02 07:21:37;;;;;;;19.10;9.27;;;;;;;-1.15;72.53;94485.52;1758267;81;21566;-72
2022/02/02 07:31:47;;;;;;;22.03;10.97;;;;;;;-1.11;70.31;94479.92;1767712;81;21504;-74
2022/02/02 07:34:50;;;;;;;33.07;21.43;;;;;;;-1.07;70.41;94483.42;1766675;81;21065;-71
2022/02/02 07:37:26;;;;;;;17.30;10.27;;;;;;;-1.04;70.08;94467.91;1766382;81;21582;-70
2022/02/02 07:39:45;;;;;;;7.97;4.97;;;;;;;-1.12;69.75;94469.15;1767394;81;21033;-72
2022/02/02 07:42:15;;;;;;;5.73;3.10;;;;;;;-1.12;69.86;94470.44;1735370;81;21019;-74
2022/02/02 07:44:45;;;;;;;4.73;2.53;;;;;;;-1.08;70.26;94478.69;1767346;81;21099;-70
2022/02/02 07:47:15;;;;;;;2.17;1.10;;;;;;;-1.00;70.30;94469.25;1767939;81;21010;-70
2022/02/02 07:49:47;;;;;;;1.50;0.90;;;;;;;-0.89;70.57;94467.58;1767449;81;21050;-73
2022/02/02 07:52:20;;;;;;;0.70;0.70;;;;;;;-0.69;70.22;94462.97;1767350;81;21535;-74
2022/02/02 07:54:48;;;;;;;;;;;;;;;-0.52;69.97;94470.85;1770380;81;21045;-71
2022/02/02 07:57:26;;;;;;;2.23;0.90;;;;;;;-0.33;69.37;94461.03;1767482;81;20153;-70
2022/02/02 07:59:57;;;;;;;34.10;13.13;;;;;;;-0.16;70.02;94457.63;1767542;81;21574;-71
2022/02/02 08:05:05;;;;;;;1.63;1.00;;;;;;;0.24;69.27;94458.63;1768038;81;21061;-72
2022/02/02 08:07:38;;;;;;;4.43;2.53;;;;;;;0.52;67.42;94440.08;1767849;81;20982;-74
2022/02/02 08:10:15;;;;;;;6.07;4.27;;;;;;;0.77;67.11;94438.80;1766620;81;21085;-73
2022/02/02 08:12:45;;;;;;;1.03;0.80;;;;;;;0.85;66.71;94431.44;1766285;81;20990;-74
2022/02/02 08:15:11;;;;;;;1.97;1.30;;;;;;;0.96;66.07;94434.05;1767908;81;20986;-71
2022/02/02 08:17:39;;;;;;;1.80;1.00;;;;;;;1.02;66.37;94424.08;1767714;81;21020;-74
2022/02/02 08:20:07;;;;;;;2.43;1.70;;;;;;;1.14;65.78;94425.81;1768039;81;21057;-75
2022/02/02 08:22:38;;;;;;;3.30;1.57;;;;;;;1.29;66.07;94424.05;1768105;81;21512;-73
2022/02/02 08:25:05;;;;;;;1.27;0.83;;;;;;;1.33;64.93;94420.13;1767430;81;21073;-76
2022/02/02 08:27:38;;;;;;;2.23;0.90;;;;;;;1.26;64.48;94430.96;1767216;81;21073;-73
2022/02/02 08:30:01;;;;;;;1.20;0.80;;;;;;;1.34;65.08;94443.53;1767718;81;21041;-72
2022/02/02 08:32:32;;;;;;;1.03;0.73;;;;;;;1.35;64.32;94443.95;1767672;81;21141;-72
2022/02/02 08:34:59;;;;;;;2.70;2.10;;;;;;;1.44;64.23;94449.58;1767979;81;21503;-71
2022/02/02 08:37:31;;;;;;;2.30;1.90;;;;;;;1.51;65.11;94440.47;1767777;81;21018;-71
2022/02/02 08:40:10;;;;;;;3.37;2.60;;;;;;;1.77;65.30;94437.36;1767647;81;21022;-71
2022/02/02 08:42:26;;;;;;;2.30;1.00;;;;;;;1.90;65.67;94446.39;1766896;81;21084;-71
2022/02/02 08:45:13;;;;;;;1.70;0.90;;;;;;;1.87;63.40;94445.11;1767223;81;21141;-71
2022/02/02 08:47:22;;;;;;;2.10;1.20;;;;;;;1.91;63.39;94436.41;1766895;81;21033;-71
2022/02/02 08:49:55;;;;;;;1.93;1.50;;;;;;;2.02;63.39;94427.28;1767668;81;21108;-71
2022/02/02 08:52:17;;;;;;;5.17;4.27;;;;;;;2.14;63.29;94436.74;1767117;81;21256;-71
2022/02/02 08:54:47;;;;;;;1.00;0.80;;;;;;;2.37;63.99;94440.55;1767642;81;21045;-74
2022/02/02 08:57:27;;;;;;;2.17;1.07;;;;;;;2.63;62.44;94446.89;1767794;81;21072;-70
2022/02/02 08:59:51;;;;;;;2.20;1.60;;;;;;;2.66;60.77;94442.09;1764633;81;21030;-68
2022/02/02 09:02:16;;;;;;;1.40;1.30;;;;;;;2.83;61.23;94436.78;1756272;81;20963;-68
2022/02/02 09:07:25;;;;;;;1.60;1.20;;;;;;;2.60;61.26;94434.75;1755837;81;21586;-74
2022/02/02 09:09:58;;;;;;;1.30;1.20;;;;;;;2.63;62.13;94443.42;1755829;81;21106;-70
2022/02/02 09:23:29;;;;;;;2.00;1.50;;;;;;;3.44;59.59;94434.93;1756387;81;21057;-70
2022/02/02 09:31:50;;;;;;;2.27;1.50;;;;;;;3.29;60.13;94452.02;1756324;82;21006;-72
2022/02/02 09:34:05;;;;;;;2.50;1.60;;;;;;;3.19;60.83;94451.23;1752818;82;21042;-72
2022/02/02 09:36:34;;;;;;;2.00;1.07;;;;;;;3.29;61.20;94455.48;1756488;82;21051;-73
2022/02/02 09:39:11;;;;;;;4.63;1.63;;;;;;;3.15;60.63;94451.72;1756441;81;20998;-71
2022/02/02 09:41:44;;;;;;;1.62;1.30;;;;;;;3.06;61.16;94447.88;1749985;82;21014;-69
2022/02/02 09:44:13;;;;;;;1.27;0.90;;;;;;;2.86;61.35;94448.47;1793870;80;21009;-69
2022/02/02 09:47:03;;;;;;;1.90;1.40;;;;;;;2.75;61.01;94445.95;1793883;80;20962;-68
2022/02/02 09:49:33;;;;;;;2.77;2.00;;;;;;;2.66;61.80;94444.70;1792860;80;21003;-68
2022/02/02 09:52:06;;;;;;;3.77;2.00;;;;;;;2.94;61.51;94428.42;1795675;80;21014;-69
2022/02/02 09:54:36;;;;;;;4.23;2.33;;;;;;;3.12;61.48;94427.41;1756954;81;21017;-69
2022/02/02 09:59:56;;;;;;;6.97;3.50;;;;;;;3.62;61.61;94428.21;1653724;86;21079;-73
2022/02/02 10:02:33;;;;;;;18.60;12.20;;;;;;;3.88;57.68;94425.75;1693696;85;21007;-74
2022/02/02 10:05:54;;;;;;;1.77;1.10;;;;;;;3.75;58.22;94413.73;1741750;80;20987;-73
2022/02/02 10:15:46;;;;;;;1.00;0.90;;;;;;;3.34;58.88;94405.92;1795699;80;21536;-77
2022/02/02 10:18:22;;;;;;;1.73;1.47;;;;;;;3.39;58.67;94412.81;1795818;80;21087;-73
2022/02/02 10:20:54;;;;;;;4.40;4.00;;;;;;;3.59;58.42;94409.14;1795989;80;20998;-73
2022/02/02 10:23:33;;;;;;;1.83;1.60;;;;;;;3.85;58.42;94409.69;1795613;80;20998;-73
2022/02/02 10:26:21;;;;;;;3.53;2.07;;;;;;;3.95;56.72;94400.01;1795753;80;21767;-73
2022/02/02 10:28:50;;;;;;;4.37;3.40;;;;;;;4.11;57.35;94403.31;1795658;80;20963;-73
2022/02/02 10:31:17;;;;;;;1.90;1.50;;;;;;;4.29;57.60;94385.23;1795575;80;20985;-73
2022/02/02 10:33:44;;;;;;;1.70;1.07;;;;;;;4.15;57.00;94389.77;1795652;80;21010;-73
2022/02/02 10:36:20;;;;;;;2.40;1.27;;;;;;;3.88;56.06;94384.89;1795805;80;21509;-73
2022/02/02 10:39:07;;;;;;;1.43;0.90;;;;;;;3.93;57.58;94388.75;1795816;80;21020;-73
2022/02/02 10:41:49;;;;;;;1.65;0.60;;;;;;;3.80;57.05;94382.79;1792713;80;20990;-73
2022/02/02 10:44:33;;;;;;;1.10;1.00;;;;;;;3.78;56.63;94381.97;1795663;80;21054;-73
2022/02/02 10:47:04;;;;;;;6.90;4.50;;;;;;;3.65;56.53;94378.64;1795865;80;20998;-73
2022/02/02 10:52:23;;;;;;;9.63;4.63;;;;;;;3.49;58.27;94395.33;1793959;80;21056;-74
2022/02/02 10:57:28;;;;;;;11.07;6.03;;;;;;;3.64;58.72;94397.77;1794817;80;21091;-74
2022/02/02 11:07:45;;;;;;;17.80;10.27;;;;;;;3.19;59.69;94413.00;1787740;80;21074;-73
2022/02/02 11:10:12;;;;;;;10.77;7.57;;;;;;;3.02;59.66;94417.08;1787576;80;21022;-73
2022/02/02 11:12:41;;;;;;;13.40;7.30;;;;;;;2.96;60.68;94416.25;1787458;80;21524;-73
2022/02/02 11:15:39;;;;;;;15.13;7.50;;;;;;;2.87;60.70;94410.66;1787498;80;21019;-73
2022/02/02 11:18:17;;;;;;;14.23;9.70;;;;;;;2.79;61.24;94409.42;1786815;80;21049;-75
2022/02/02 11:20:45;;;;;;;12.10;8.53;;;;;;;2.62;61.64;94410.02;1786443;80;21086;-75
2022/02/02 11:23:12;;;;;;;12.70;7.63;;;;;;;2.40;62.83;94409.73;1787505;80;21003;-75
2022/02/02 11:25:54;;;;;;;16.03;8.40;;;;;;;2.33;62.79;94406.29;1787682;80;21469;-75
2022/02/02 11:28:32;;;;;;;13.77;8.37;;;;;;;2.30;62.60;94415.42;1787632;80;21018;-74
2022/02/02 11:31:10;;;;;;;14.00;8.63;;;;;;;2.25;62.71;94415.89;1787053;80;21066;-74
2022/02/02 11:33:53;;;;;;;16.00;8.73;;;;;;;2.19;62.82;94414.60;1784452;80;21027;-75
2022/02/02 11:36:34;;;;;;;15.10;8.88;;;;;;;2.04;63.23;94410.34;1787845;80;21023;-75
2022/02/02 11:39:06;;;;;;;14.93;8.83;;;;;;;1.95;63.65;94419.07;1787292;80;21015;-74
2022/02/02 11:47:21;;;;;;;12.13;6.73;;;;;;;1.82;64.16;94410.90;1787717;80;21007;-75
2022/02/02 11:49:53;;;;;;;21.87;10.53;;;;;;;1.83;64.02;94415.22;1785293;80;20999;-74
2022/02/02 11:52:46;;;;;;;13.57;8.37;;;;;;;1.82;64.45;94412.20;1787740;80;21102;-74
2022/02/02 11:55:18;;;;;;;24.00;14.03;;;;;;;1.78;64.19;94422.17;1786649;80;21053;-75
2022/02/02 11:58:16;;;;;;;15.60;8.40;;;;;;;1.76;64.27;94428.66;1787703;80;21018;-74
2022/02/02 12:06:30;;;;;;;20.68;11.30;;;;;;;1.62;64.79;94433.92;1793398;79;21076;-74
2022/02/02 13:00:24;;;;;;;23.87;11.97;;;;;;;1.12;66.76;94487.29;1793279;80;20127;-75
2022/02/02 13:02:51;;;;;;;19.87;10.13;;;;;;;1.00;67.14;94486.41;1793251;80;21062;-74
2022/02/02 13:05:24;;;;;;;21.73;11.10;;;;;;;0.95;67.46;94488.58;1792902;80;21548;-74
2022/02/02 13:08:01;;;;;;;20.47;9.70;;;;;;;0.89;67.85;94505.03;1792699;80;21014;-74
2022/02/02 13:10:34;;;;;;;20.40;11.50;;;;;;;0.88;67.46;94501.98;1793357;79;21500;-74
2022/02/02 13:13:19;;;;;;;18.70;10.53;;;;;;;0.90;67.72;94509.78;1793471;80;21017;-74
2022/02/02 13:21:13;;;;;;;14.33;7.60;;;;;;;0.82;68.04;94523.63;1793296;79;21018;-74
2022/02/02 13:29:26;;;;;;;24.40;9.60;;;;;;;0.38;70.45;94520.95;1793292;80;20998;-74
2022/02/02 13:31:54;;;;;;;23.50;9.83;;;;;;;0.40;70.78;94518.79;1790838;80;21502;-74
2022/02/02 13:34:28;;;;;;;14.58;8.13;;;;;;;0.46;70.32;94524.86;1792794;80;20999;-74
2022/02/02 13:37:20;;;;;;;22.70;11.40;;;;;;;0.34;71.26;94526.54;1764438;80;21487;-74
2022/02/02 13:42:44;;;;;;;29.03;13.47;;;;;;;0.36;71.93;94527.86;1793133;80;21061;-74
2022/02/02 13:59:01;;;;;;;23.10;11.70;;;;;;;0.32;72.93;94531.29;1793299;80;20983;-74
2022/02/02 14:01:26;;;;;;;17.30;9.47;;;;;;;0.41;72.97;94538.67;1788315;80;21034;-74
2022/02/02 14:06:47;;;;;;;18.90;10.60;;;;;;;0.50;72.49;94544.75;1787883;80;21007;-74
2022/02/02 14:09:20;;;;;;;26.07;13.13;;;;;;;0.43;72.58;94552.97;1784339;80;21536;-74
2022/02/02 14:33:07;;;;;;;17.60;10.60;;;;;;;0.35;72.05;94553.34;1787717;80;21528;-74
2022/02/02 14:35:34;;;;;;;15.50;8.57;;;;;;;0.26;72.40;94564.57;1787647;80;21045;-74
2022/02/02 14:38:03;;;;;;;16.47;8.20;;;;;;;0.25;72.90;94569.73;1787629;80;20998;-74
2022/02/02 14:40:44;;;;;;;13.33;8.87;;;;;;;0.21;72.92;94571.47;1787760;80;20990;-74
2022/02/02 14:43:06;;;;;;;16.40;9.20;;;;;;;0.21;73.24;94574.92;1785886;80;21469;-74
2022/02/02 14:45:36;;;;;;;15.17;9.23;;;;;;;0.24;73.50;94579.25;1787618;80;20986;-74
2022/02/02 14:48:09;;;;;;;15.20;9.27;;;;;;;0.26;73.34;94585.33;1787332;80;21018;-74
2022/02/02 14:50:34;;;;;;;17.30;9.10;;;;;;;0.30;73.23;94583.16;1785246;80;20991;-74
2022/02/02 14:53:15;;;;;;;19.07;8.80;;;;;;;0.30;73.59;94577.97;1786957;80;21082;-74
2022/02/02 15:30:45;;;;;;;18.60;9.23;;;;;;;0.06;74.62;94597.33;1741610;82;21040;-74
2022/02/02 15:33:05;;;;;;;16.60;9.70;;;;;;;0.06;74.72;94599.92;1770908;80;21042;-76
2022/02/02 15:35:32;;;;;;;15.27;8.80;;;;;;;0.04;74.74;94605.52;1772327;80;20963;-74
2022/02/02 15:40:42;;;;;;;16.50;9.73;;;;;;;-0.03;75.02;94598.98;1772370;81;20958;-74
2022/02/02 15:59:09;;;;;;;26.77;16.83;;;;;;;-0.07;76.06;94620.59;1772367;81;21022;-74
2022/02/02 16:04:11;;;;;;;30.75;16.00;;;;;;;-0.07;76.32;94623.62;1772658;80;20983;-74
2022/02/02 16:06:34;;;;;;;30.03;16.37;;;;;;;-0.09;76.24;94628.78;1737856;82;21090;-75
2022/02/02 16:09:16;;;;;;;27.37;14.97;;;;;;;-0.09;76.72;94630.52;1772533;81;21480;-74
2022/02/02 16:11:30;;;;;;;29.20;14.83;;;;;;;-0.04;76.77;94642.64;1735635;82;21512;-75
2022/02/02 16:14:04;;;;;;;24.77;13.93;;;;;;;-0.03;76.46;94641.77;1772499;80;21853;-75
2022/02/02 16:19:07;;;;;;;17.50;9.73;;;;;;;-0.09;76.85;94648.23;1772778;80;21006;-74
2022/02/02 16:25:06;;;;;;;51.23;24.13;;;;;;;-0.19;76.93;94638.66;1772828;81;20970;-74
2022/02/02 16:35:25;;;;;;;23.60;13.30;;;;;;;-0.18;77.29;94644.27;1772648;80;21332;-74
2022/02/02 16:37:39;;;;;;;27.87;13.93;;;;;;;-0.22;77.55;94647.71;1734844;82;21539;-74
2022/02/02 16:40:04;;;;;;;28.93;14.90;;;;;;;-0.22;77.96;94655.05;1737590;82;21535;-74
2022/02/02 16:45:16;;;;;;;34.03;19.67;;;;;;;-0.20;77.29;94662.86;1739077;82;21018;-74
2022/02/02 16:47:44;;;;;;;36.20;20.40;;;;;;;-0.30;77.33;94656.73;1772519;81;21034;-74
2022/02/02 16:50:20;;;;;;;39.33;22.03;;;;;;;-0.39;78.23;94659.67;1738803;82;21029;-74
2022/02/02 16:52:47;;;;;;;36.40;18.23;;;;;;;-0.37;78.42;94667.90;1772486;80;20991;-74
2022/02/02 16:55:22;;;;;;;27.93;14.73;;;;;;;-0.38;78.78;94669.17;1738874;82;21061;-74
2022/02/02 16:57:52;;;;;;;37.50;19.00;;;;;;;-0.40;79.32;94674.77;1771725;80;21531;-74
2022/02/02 17:40:17;;;;;;;90.67;43.23;;;;;;;-0.30;80.50;94690.86;1738918;82;21496;-74
2022/02/02 17:56:12;;;;;;;92.20;45.90;;;;;;;-0.19;80.25;94703.47;1738922;82;21069;-74
2022/02/02 18:12:53;;;;;;;38.53;18.90;;;;;;;-0.31;79.99;94719.78;1750903;82;21026;-74
2022/02/02 18:20:38;;;;;;;28.77;15.83;;;;;;;-0.16;79.85;94717.74;1750658;82;21003;-74
2022/02/02 18:23:15;;;;;;;34.60;16.93;;;;;;;-0.14;79.98;94717.77;1750249;82;21078;-74
2022/02/02 18:25:44;;;;;;;31.10;16.67;;;;;;;-0.16;79.72;94721.63;1747984;82;21076;-74
2022/02/02 18:28:10;;;;;;;36.03;17.30;;;;;;;-0.13;79.80;94732.46;1748484;82;21034;-74
2022/02/02 18:30:43;;;;;;;29.63;16.13;;;;;;;-0.08;80.08;94737.25;1749413;82;21501;-74
2022/02/02 18:35:52;;;;;;;27.23;16.67;;;;;;;-0.14;80.53;94738.52;1750808;82;20991;-74
2022/02/02 18:46:30;;;;;;;37.30;21.27;;;;;;;-0.30;81.98;94761.71;1750869;82;21003;-74
2022/02/02 18:49:06;;;;;;;38.83;20.55;;;;;;;-0.31;82.58;94758.66;1748705;82;21561;-74
2022/02/02 18:54:21;;;;;;;35.00;20.90;;;;;;;-0.26;82.96;94758.27;1750792;82;21027;-74
2022/02/02 19:02:01;;;;;;;59.07;29.43;;;;;;;-0.27;83.58;94772.09;1750755;82;21087;-74
2022/02/02 19:37:15;;;;;;;25.73;16.10;;;;;;;-0.45;81.82;94779.27;1701858;84;21143;-75
2022/02/02 19:55:46;;;;;;;39.47;21.80;;;;;;;-0.61;83.21;94827.88;1750814;82;21034;-74
2022/02/02 20:11:40;;;;;;;22.25;14.25;;;;;;;-0.42;84.29;94854.02;1750824;82;21031;-74
2022/02/02 20:14:08;;;;;;;21.30;14.17;;;;;;;-0.34;84.96;94853.67;1750426;82;21126;-74
2022/02/02 20:16:34;;;;;;;18.17;10.93;;;;;;;-0.23;84.59;94856.84;1750700;82;21015;-74
2022/02/02 20:19:05;;;;;;;20.57;13.40;;;;;;;-0.21;84.04;94850.36;1750704;82;21031;-74
2022/02/02 20:21:34;;;;;;;17.13;11.47;;;;;;;-0.16;85.04;94851.27;1750332;82;21461;-74
2022/02/02 20:24:01;;;;;;;15.70;9.17;;;;;;;-0.07;85.01;94854.41;1750413;82;21562;-74
2022/02/02 20:26:29;;;;;;;11.30;8.10;;;;;;;0.01;85.53;94859.66;1743192;82;21006;-74
2022/02/02 20:28:59;;;;;;;15.00;9.80;;;;;;;0.06;85.39;94858.84;1743285;82;21097;-74
2022/02/02 20:31:25;;;;;;;16.20;10.43;;;;;;;0.08;84.70;94858.44;1743226;82;21020;-74
2022/02/02 20:33:51;;;;;;;16.37;9.40;;;;;;;0.10;84.37;94863.63;1743211;82;21036;-74
2022/02/02 20:36:18;;;;;;;36.73;19.83;;;;;;;0.09;83.85;94864.06;1743029;82;21093;-74
2022/02/02 20:38:44;;;;;;;111.70;53.87;;;;;;;0.00;83.03;94876.95;1743380;82;21471;-74
2022/02/02 20:41:11;;;;;;;113.70;50.10;;;;;;;-0.13;83.98;94879.81;1743115;82;21045;-74
2022/02/02 20:43:50;;;;;;;109.50;49.87;;;;;;;-0.18;84.12;94879.33;1743294;82;21002;-74
2022/02/02 21:03:08;;;;;;;19.57;11.40;;;;;;;-0.81;83.73;94921.30;1743443;82;21053;-74
2022/02/02 21:04:47;;;;;;;18.40;10.03;;;;;;;-0.84;83.42;94913.50;1735495;82;21030;-74
2022/02/02 21:07:28;;;;;;;16.67;10.17;;;;;;;-0.92;83.27;94923.75;1734689;83;21049;-74
2022/02/02 21:14:39;;;;;;;12.20;7.47;;;;;;;-0.96;83.23;94932.31;1737729;82;21077;-74
2022/02/02 21:17:10;;;;;;;33.57;17.23;;;;;;;-1.00;83.33;94935.30;1737685;82;21030;-74
2022/02/02 21:19:48;;;;;;;32.77;17.77;;;;;;;-1.04;83.91;94932.63;1737462;82;21011;-74
2022/02/02 21:22:08;;;;;;;16.90;8.57;;;;;;;-1.10;83.50;94945.92;1735819;83;21066;-74
2022/02/02 21:24:50;;;;;;;16.43;9.27;;;;;;;-1.11;83.45;94952.36;1737690;83;21010;-74
2022/02/02 21:29:39;;;;;;;21.43;12.63;;;;;;;-1.27;83.16;94955.14;1737571;82;21521;-74
2022/02/02 21:32:06;;;;;;;16.60;10.17;;;;;;;-1.29;83.42;94952.94;1737625;82;21066;-74
2022/02/02 21:34:33;;;;;;;21.13;11.60;;;;;;;-1.31;83.50;94953.37;1737610;83;21052;-74
2022/02/02 21:37:04;;;;;;;31.80;16.57;;;;;;;-1.41;83.47;94965.28;1737524;82;21014;-74
2022/02/02 21:39:29;;;;;;;28.63;16.13;;;;;;;-1.47;83.29;94970.33;1737256;83;21094;-74
2022/02/02 21:41:57;;;;;;;31.67;17.83;;;;;;;-1.55;83.32;94977.09;1737631;83;21038;-74
2022/02/02 21:44:24;;;;;;;20.17;13.57;;;;;;;-1.61;83.53;94980.45;1737525;83;21094;-74
2022/02/02 21:46:52;;;;;;;18.80;12.63;;;;;;;-1.54;85.10;94982.70;1737679;83;21002;-74
2022/02/02 21:49:22;;;;;;;15.50;10.20;;;;;;;-1.32;87.09;94981.37;1737703;82;20990;-74
2022/02/02 21:54:19;;;;;;;11.97;6.90;;;;;;;-0.93;87.51;94996.69;1737618;82;21142;-74
2022/02/02 21:56:46;;;;;;;17.10;10.77;;;;;;;-0.75;87.60;95000.41;1737725;82;20986;-74
2022/02/02 21:59:12;;;;;;;6.17;4.00;;;;;;;-0.63;87.12;95005.78;1737612;82;21500;-74
2022/02/02 22:01:39;;;;;;;6.80;5.07;;;;;;;-0.66;85.40;95011.79;1737702;82;20966;-74
2022/02/02 22:04:05;;;;;;;8.20;5.33;;;;;;;-0.73;84.70;95015.53;1737442;82;21061;-74
2022/02/02 22:06:32;;;;;;;9.37;6.10;;;;;;;-0.74;84.97;95010.78;1737263;83;21109;-74
2022/02/02 22:08:58;;;;;;;5.27;3.60;;;;;;;-0.77;84.31;95012.03;1737665;82;21018;-74
2022/02/02 22:11:25;;;;;;;5.00;3.77;;;;;;;-0.81;84.13;95015.84;1737689;82;21018;-74
2022/02/02 22:14:05;;;;;;;6.53;4.10;;;;;;;-0.84;84.13;95017.96;1737914;82;21069;-74
2022/02/02 22:16:25;;;;;;;6.60;4.27;;;;;;;-0.90;83.88;95031.69;1737119;82;21007;-74